Главная страница
METAR-TAF:

METAR-TAF

Аэропорты :

Порт-оф-Спейн, Тринидад, Тринидад и Тобаго

широта: 10-37N, долгота: 061-21W, высота над уровнем моря: 12 м

Текущие метеонаблюдения

Эта сводка был подготовлена 36 минут назад, в 22:00 UTC
Ветер 9 Узел от восточный
Температура 26°C
Влажность 70%
Давление 1014 hPa
Видимость 10 км и более
небольшая облачность на высоте 1800 фута
ливни в окрестностях, ливни в окрестностях

METAR: TTPP 222200Z 08009KT 9999 VCSH FEW018 26/20 Q1014 NOSIG VCSH N

Время: 18:36 (22:36 UTC)

Прогноз

Эта сводка был подготовлена 12 часа и 36 минут назад, в 10:00 UTC
Прогноз действительный с 22-го 12 UTC до 23-го 12 UTC
Ветер 14 Узел от восточный
Видимость 10 км и более
Отдельные облака на высоте 2000 фута
изменения
С 22-го 23 UTC до 23-го 01 UTC
Ветер Узел от северный
небольшая облачность на высоте 1600 фута

TAF: TTPP 221000Z 2212/2312 10014KT 9999 SCT020 BECMG 2223/2301 00000KT FEW016

Метеонаблюдения и прогнозы для более 4000 аэропортов (сводки METAR и TAF).

Имеющиеся станции представлены на карте желтыми и красными точками.

Чтобы увидеть название станции, наведите на нее мышь.

Затем щелкните, чтобы увидеть метеонаблюдения и метеопрогнозы.

Управление картой: чтобы увеличить масштаб, щелкните зеленые кнопки с черным крестиком; чтобы уменьшить масштаб, щелкните зеленую кнопку с тире; для просмотра соседних карт щелкайте зеленые стрелки.


METAR-TAF: